Ewaterfrd, Pennsylvania
Current Conditions -  °F | °C
As of 1:53 PM on Saturday 20 Dec 2014 (Local Time) from KAOO Reporting Station
Clear Clear  
Wind Chill: 30°   Ceiling: Unl
Heat Index: 30°   Visibility: 10mi
Dew Point: 21°   Wind: 3mph
Humidity: 69%   Direction: 160°SSE
Pressure: 30.17"   Gusts: NA
Location:  40.3617°N, 77.6745°W
Report Text: KAOO 201853Z AUTO 16003KT 10SM CLR M01/M06 A3017 RMK AO2 SLP237 T10111061
Loading
Personal Weather Stations






























Interactive Weather Map New forecast layout! Learn more

10-Day Weather Forecast

Advertisements
Track Severe Weather on mobile